Airfield :
LOGIN :

Register | Disclaimer

   EN    FR    IT 

 










Legend :    VFR   Marginal VFR   IFR   Intensive IFR   Very Intensive IFR
Visi :
Ceiling :
>= 8 km
>= 3000ft
5 to 8 km
1000 to 3000 ft
1500m to 5 km
500 to 1000 ft
800 to 1500m
200 to 500 ft
< 800m
< 200 ft
Symbols :   Thunderstorms  Fog  Heavy snow  Heavy precipitations  Wind > 20 kt
SIGMETs :     Misc.  Thunderstorms  Icing  Turbulence  Mountain Waves  Volcanic Ashes






- Airport Elevation : 138 ft
- IATA code : RLG


ETNL - Rostock Laage

CURRENT METAR :
  • 282311Z 26012KT 2500 SN BKN007 00/M00 Q0990 YLO

EXPIRED METARs :
  • 282242Z 26011KT 5000 -SG BKN006 02/01 Q0990 YLO
  • 282220Z 26011KT 9999 BKN007 02/01 Q0989 GRN
  • 282144Z 26010KT 9999 BKN006 02/01 Q0989 YLO
  • 282120Z 26014KT 9999 BKN008 02/01 Q0989 GRN

TAF TAF ETNL
Valid from the 28 at 18:00 until the 29 at 06:00 UTC


281725Z 2818/2906 22007KT 9999 NSW BKN015
TEMPO 2818/2820 24010G20KT 2000 SHRASN BKN005TCU
BECMG 2820/2822 25010KT 6000 NSW BKN012
TEMPO 2820/2906 25018KT 1000 SHSN BKN003TCU BY ETGL



MET'MAP, your aeronautical weather chart ! - Copyright ORBIFLY December 2007 - Disclaimer

ORBIFLY MET'MAP TEAM :

Programming & Development : Alexandra Zaïnal
Concept & original design : Baudouin d'Aumeries
Assistance for programming : Marc-Olivier Méhu
Technical & hardware support : Manuel Goepfert

Contact : metmap@orbifly.com




SOURCES & CREDITS :

   NOAA